Time;durP1;ratioP1;P1;durP2;ratioP2;P2;SDS_P1;SDS_P2;PMS_P1;PMS_P2;Temp;Humidity;BMP_temperature;BMP_pressure;BME280_temperature;BME280_humidity;BME280_pressure;Samples;Min_cycle;Max_cycle;Signal;HPM_P1;HPM_P2
2023/07/05 00:00:16;;;;;;;11.60;5.90;;;16.90;99.90;;;;;;5054769;28;20477;-63
2023/07/05 00:02:41;;;;;;;9.65;5.82;;;16.90;99.90;;;;;;5035138;28;21037;-63
2023/07/05 00:05:07;;;;;;;10.60;6.17;;;16.80;99.90;;;;;;5035064;28;20515;-63
2023/07/05 00:07:33;;;;;;;12.03;6.40;;;16.80;99.90;;;;;;5034601;28;20409;-63
2023/07/05 00:09:59;;;;;;;9.45;6.10;;;16.80;99.90;;;;;;5034544;28;20416;-63
2023/07/05 00:12:25;;;;;;;9.80;5.97;;;16.80;99.90;;;;;;5041534;28;20412;-63
2023/07/05 00:14:51;;;;;;;11.27;6.30;;;16.80;99.90;;;;;;5035597;28;20413;-63
2023/07/05 00:17:16;;;;;;;11.43;6.32;;;16.80;99.90;;;;;;5055487;28;20406;-63
2023/07/05 00:19:42;;;;;;;11.87;6.30;;;16.80;99.90;;;;;;5052530;28;20493;-63
2023/07/05 00:22:08;;;;;;;12.90;6.77;;;16.80;99.90;;;;;;5060669;28;20404;-63
2023/07/05 00:24:34;;;;;;;10.97;6.67;;;16.80;99.90;;;;;;5033207;28;21006;-63
2023/07/05 00:26:59;;;;;;;12.43;6.63;;;16.80;99.90;;;;;;5062302;28;20468;-64
2023/07/05 00:29:26;;;;;;;9.77;6.53;;;16.80;99.90;;;;;;5055378;28;20756;-63
2023/07/05 00:31:52;;;;;;;9.80;6.50;;;16.80;99.90;;;;;;5034542;28;20898;-63
2023/07/05 00:34:18;;;;;;;13.70;7.17;;;16.80;99.90;;;;;;5034651;28;20418;-63
2023/07/05 00:36:44;;;;;;;13.68;6.28;;;16.80;99.90;;;;;;5058647;28;20513;-63
2023/07/05 00:39:09;;;;;;;12.27;7.00;;;16.70;99.90;;;;;;5053524;28;20492;-63
2023/07/05 00:41:35;;;;;;;12.87;6.70;;;16.70;99.90;;;;;;5030353;28;20502;-63
2023/07/05 00:44:01;;;;;;;13.45;7.43;;;16.70;99.90;;;;;;5033436;28;20895;-63
2023/07/05 00:46:31;;;;;;;13.60;7.10;;;16.70;99.90;;;;;;5033556;28;20479;-64
2023/07/05 00:49:03;;;;;;;11.95;7.10;;;16.70;99.90;;;;;;5048084;28;20404;-64
2023/07/05 00:51:51;;;;;;;12.10;7.40;;;16.70;99.90;;;;;;5041679;28;20915;-64
2023/07/05 00:54:22;;;;;;;13.40;7.88;;;16.70;99.90;;;;;;5066948;28;20908;-64
2023/07/05 00:56:53;;;;;;;14.00;8.05;;;16.70;99.90;;;;;;5035583;28;20475;-64
2023/07/05 00:59:23;;;;;;;13.98;7.80;;;16.60;99.90;;;;;;5036801;28;20422;-64
2023/07/05 01:01:49;;;;;;;15.13;8.37;;;16.60;99.90;;;;;;5050321;28;20510;-64
2023/07/05 01:04:15;;;;;;;15.88;8.93;;;16.60;99.90;;;;;;5050496;28;20401;-65
2023/07/05 01:06:43;;;;;;;16.52;8.93;;;16.60;99.90;;;;;;5050962;28;20474;-65
2023/07/05 01:09:08;;;;;;;13.32;8.63;;;16.50;99.90;;;;;;5061091;28;20466;-64
2023/07/05 01:12:12;;;;;;;14.47;8.77;;;16.50;99.90;;;;;;5045502;28;20416;-65
2023/07/05 01:14:43;;;;;;;14.80;9.27;;;16.50;99.90;;;;;;5015036;28;20429;-65
2023/07/05 01:17:29;;;;;;;15.55;9.13;;;16.50;99.90;;;;;;5060654;28;20404;-66
2023/07/05 01:20:09;;;;;;;13.68;9.60;;;16.50;99.90;;;;;;5027296;28;20437;-66
2023/07/05 01:22:52;;;;;;;13.40;9.07;;;16.40;99.90;;;;;;5049762;28;20400;-66
2023/07/05 01:25:26;;;;;;;17.33;9.75;;;16.40;99.90;;;;;;5039095;28;20404;-66
2023/07/05 01:27:57;;;;;;;16.42;9.80;;;16.40;99.90;;;;;;5044153;28;20405;-65
2023/07/05 01:30:58;;;;;;;14.77;9.68;;;16.40;99.90;;;;;;5036983;28;20941;-65
2023/07/05 01:33:42;;;;;;;13.50;10.00;;;16.40;99.90;;;;;;5042605;28;20405;-65
2023/07/05 01:36:09;;;;;;;16.83;9.77;;;16.40;99.90;;;;;;5034852;28;20461;-65
2023/07/05 01:38:34;;;;;;;15.87;9.67;;;16.40;99.90;;;;;;5058674;28;20887;-65
2023/07/05 01:41:04;;;;;;;14.47;9.77;;;16.40;99.90;;;;;;5036424;28;20475;-64
2023/07/05 01:43:33;;;;;;;16.48;9.90;;;16.40;99.90;;;;;;5030745;28;20411;-65
2023/07/05 01:46:09;;;;;;;13.52;9.48;;;16.40;99.90;;;;;;5032345;28;20401;-65
2023/07/05 01:49:07;;;;;;;16.33;9.90;;;16.40;99.90;;;;;;5044760;28;20475;-65
2023/07/05 01:51:52;;;;;;;15.25;10.25;;;16.30;99.90;;;;;;5036590;28;20915;-65
2023/07/05 01:54:43;;;;;;;16.85;10.55;;;16.30;99.90;;;;;;5032216;28;20424;-65
2023/07/05 01:57:17;;;;;;;16.05;10.60;;;16.30;99.90;;;;;;5030752;28;20421;-65
2023/07/05 02:00:01;;;;;;;17.00;9.90;;;16.30;99.90;;;;;;5057279;28;20964;-65
2023/07/05 02:02:31;;;;;;;16.73;10.10;;;16.30;99.90;;;;;;5055559;28;20469;-65
2023/07/05 02:04:59;;;;;;;17.23;10.10;;;16.20;99.90;;;;;;5047869;28;20453;-64
2023/07/05 02:07:29;;;;;;;14.57;10.15;;;16.20;99.90;;;;;;5051793;28;20470;-65
2023/07/05 02:09:55;;;;;;;14.23;10.23;;;16.30;99.90;;;;;;5050041;28;20496;-65
2023/07/05 02:12:22;;;;;;;15.73;10.52;;;16.20;99.90;;;;;;5050116;28;20454;-65
2023/07/05 02:14:48;;;;;;;15.55;10.43;;;16.20;99.90;;;;;;5056422;28;20411;-64
2023/07/05 02:17:14;;;;;;;15.07;10.30;;;16.20;99.90;;;;;;5058171;28;20414;-65
2023/07/05 02:19:40;;;;;;;15.75;10.45;;;16.20;99.90;;;;;;5050714;28;20409;-65
2023/07/05 02:22:06;;;;;;;17.30;11.23;;;16.20;99.90;;;;;;5040091;28;20457;-65
2023/07/05 02:24:31;;;;;;;16.90;10.00;;;16.20;99.90;;;;;;5030470;28;20771;-65
2023/07/05 02:26:59;;;;;;;16.60;11.10;;;16.20;99.90;;;;;;5058023;28;20399;-65
2023/07/05 02:29:25;;;;;;;16.48;10.95;;;16.20;99.90;;;;;;5031438;28;20413;-65
2023/07/05 02:31:51;;;;;;;16.83;10.93;;;16.20;99.90;;;;;;5052076;28;20404;-63
2023/07/05 02:34:17;;;;;;;15.90;11.25;;;16.20;99.90;;;;;;5065823;28;20408;-63
2023/07/05 02:36:43;;;;;;;16.60;11.13;;;16.20;99.90;;;;;;5049574;28;20419;-64
2023/07/05 02:39:09;;;;;;;17.95;11.43;;;16.20;99.90;;;;;;5028375;28;20923;-64
2023/07/05 02:41:35;;;;;;;15.67;10.93;;;16.20;99.90;;;;;;5049446;28;20564;-66
2023/07/05 02:44:00;;;;;;;16.55;11.23;;;16.20;99.90;;;;;;5038947;28;20439;-63
2023/07/05 02:46:29;;;;;;;16.23;11.35;;;16.20;99.90;;;;;;5039339;28;20441;-63
2023/07/05 02:48:57;;;;;;;17.17;11.30;;;16.20;99.90;;;;;;5050046;28;20851;-63
2023/07/05 02:51:23;;;;;;;16.33;11.90;;;16.20;99.90;;;;;;5033245;28;20982;-63
2023/07/05 02:53:49;;;;;;;17.60;11.77;;;16.20;99.90;;;;;;5035378;28;20429;-63
2023/07/05 02:56:15;;;;;;;16.38;11.73;;;16.20;99.90;;;;;;5049365;28;20922;-63
2023/07/05 02:58:41;;;;;;;16.97;11.67;;;16.20;99.90;;;;;;5058266;28;20863;-63
2023/07/05 03:01:06;;;;;;;17.70;11.93;;;16.20;99.90;;;;;;5054839;28;20847;-63
2023/07/05 03:03:32;;;;;;;16.93;11.80;;;16.20;99.90;;;;;;5068956;28;20865;-63
2023/07/05 03:05:59;;;;;;;15.13;11.60;;;16.20;99.90;;;;;;5046305;28;20423;-63
2023/07/05 03:08:26;;;;;;;18.92;11.43;;;16.20;99.90;;;;;;5049168;28;20401;-63
2023/07/05 03:10:53;;;;;;;16.65;11.25;;;16.20;99.90;;;;;;5037427;28;20520;-69
2023/07/05 03:13:19;;;;;;;17.08;11.93;;;16.20;99.90;;;;;;5030822;28;20440;-63
2023/07/05 03:15:44;;;;;;;18.13;11.70;;;16.30;99.90;;;;;;5028039;28;20451;-63
2023/07/05 03:18:10;;;;;;;17.38;11.77;;;16.20;99.90;;;;;;5067018;22;20469;-63
2023/07/05 03:20:38;;;;;;;15.47;11.70;;;16.20;99.90;;;;;;5068421;28;20396;-65
2023/07/05 03:23:04;;;;;;;16.27;12.07;;;16.20;99.90;;;;;;5068256;28;20395;-63
2023/07/05 03:25:29;;;;;;;17.20;12.57;;;16.20;99.90;;;;;;5068392;28;20474;-64
2023/07/05 03:27:55;;;;;;;17.60;11.80;;;16.20;99.90;;;;;;5065067;28;20927;-63
2023/07/05 03:30:22;;;;;;;17.03;11.90;;;16.10;99.90;;;;;;5046525;28;20399;-63
2023/07/05 03:32:49;;;;;;;16.70;12.10;;;16.20;99.90;;;;;;5064191;28;20406;-65
2023/07/05 03:35:15;;;;;;;17.23;12.50;;;16.20;99.90;;;;;;5067065;28;20464;-63
2023/07/05 03:37:41;;;;;;;16.65;11.50;;;16.20;99.90;;;;;;5045439;28;20876;-63
2023/07/05 03:40:08;;;;;;;15.07;11.45;;;16.20;99.90;;;;;;5066096;28;20455;-64
2023/07/05 03:42:35;;;;;;;15.98;11.00;;;16.20;99.90;;;;;;5067812;28;20433;-63
2023/07/05 03:45:00;;;;;;;15.23;11.13;;;16.20;99.90;;;;;;5067344;28;20747;-64
2023/07/05 03:47:29;;;;;;;13.98;10.35;;;16.20;99.90;;;;;;5065033;28;20465;-62
2023/07/05 03:49:55;;;;;;;14.73;10.68;;;16.20;99.90;;;;;;5068302;28;20395;-64
2023/07/05 03:52:22;;;;;;;14.88;10.00;;;16.20;99.90;;;;;;5068929;28;20749;-64
2023/07/05 03:54:48;;;;;;;13.63;9.50;;;16.20;99.90;;;;;;5048066;28;20499;-63
2023/07/05 03:57:14;;;;;;;14.10;9.07;;;16.20;99.90;;;;;;5050582;28;20511;-63
2023/07/05 03:59:40;;;;;;;14.05;9.57;;;16.20;99.90;;;;;;5063053;28;20834;-62
2023/07/05 04:02:06;;;;;;;12.23;8.10;;;16.20;99.90;;;;;;5065650;28;20485;-63
2023/07/05 04:04:32;;;;;;;11.00;7.70;;;16.20;99.90;;;;;;5062127;28;20458;-63
2023/07/05 04:06:59;;;;;;;11.00;7.22;;;16.20;99.90;;;;;;5068577;28;20475;-64
2023/07/05 04:09:25;;;;;;;9.93;7.00;;;16.20;99.90;;;;;;5075617;28;20446;-62
2023/07/05 04:11:51;;;;;;;9.90;6.32;;;16.30;99.90;;;;;;5070582;28;20466;-63
2023/07/05 04:14:17;;;;;;;10.55;6.50;;;16.20;99.90;;;;;;5072389;28;20404;-62
2023/07/05 04:16:43;;;;;;;10.23;5.57;;;16.20;99.90;;;;;;5059111;28;20435;-62
2023/07/05 04:19:09;;;;;;;9.13;5.70;;;16.20;99.90;;;;;;5068722;28;20404;-63
2023/07/05 04:21:35;;;;;;;8.13;5.50;;;16.20;99.90;;;;;;5068756;28;20470;-62
2023/07/05 04:24:01;;;;;;;8.63;4.90;;;16.10;99.90;;;;;;5067049;28;20407;-62
2023/07/05 04:26:28;;;;;;;9.47;4.70;;;16.10;99.90;;;;;;5068421;28;20491;-62
2023/07/05 04:28:55;;;;;;;7.63;4.25;;;16.10;99.90;;;;;;5065997;28;20438;-64
2023/07/05 04:31:27;;;;;;;6.45;4.35;;;16.10;99.90;;;;;;5050120;28;20442;-63
2023/07/05 04:33:53;;;;;;;6.20;4.60;;;15.90;99.90;;;;;;5047554;28;20513;-63
2023/07/05 04:36:18;;;;;;;11.45;4.82;;;15.80;99.90;;;;;;5063957;28;20853;-64
2023/07/05 04:38:44;;;;;;;6.72;4.88;;;15.70;99.90;;;;;;5068533;28;20443;-63
2023/07/05 04:41:10;;;;;;;8.07;4.70;;;15.60;99.90;;;;;;5066503;28;20394;-63
2023/07/05 04:43:35;;;;;;;7.73;4.83;;;15.50;99.90;;;;;;5064537;28;20773;-62
2023/07/05 04:46:01;;;;;;;8.93;5.10;;;15.40;99.90;;;;;;5051851;28;20429;-62
2023/07/05 04:48:29;;;;;;;7.90;4.90;;;15.40;99.90;;;;;;5065013;28;21132;-63
2023/07/05 04:50:57;;;;;;;8.32;5.57;;;15.30;99.90;;;;;;5068213;28;20423;-64
2023/07/05 04:53:25;;;;;;;7.88;5.35;;;15.20;99.90;;;;;;5063973;28;20469;-63
2023/07/05 04:55:53;;;;;;;8.77;5.40;;;15.10;99.90;;;;;;5069302;28;20835;-65
2023/07/05 04:58:20;;;;;;;8.02;5.07;;;15.10;99.90;;;;;;5045292;28;20872;-63
2023/07/05 05:00:46;;;;;;;7.25;5.38;;;15.00;99.90;;;;;;5058384;28;20550;-62
2023/07/05 05:03:20;;;;;;;7.53;5.10;;;14.60;99.90;;;;;;5068576;28;20482;-62
2023/07/05 05:05:50;;;;;;;8.73;5.70;;;14.90;99.90;;;;;;5073259;28;21109;-63
2023/07/05 05:08:16;;;;;;;8.00;5.13;;;15.00;99.90;;;;;;5071006;28;20403;-62
2023/07/05 05:10:42;;;;;;;8.33;5.17;;;14.90;99.90;;;;;;5054946;28;20408;-62
2023/07/05 05:13:08;;;;;;;7.85;5.07;;;14.90;99.90;;;;;;5062896;28;20416;-63
2023/07/05 05:15:39;;;;;;;8.45;5.28;;;15.00;99.90;;;;;;5066848;28;20440;-62
2023/07/05 05:18:06;;;;;;;8.52;5.55;;;15.00;99.90;;;;;;5066769;28;20766;-62
2023/07/05 05:20:31;;;;;;;9.20;5.00;;;15.00;99.90;;;;;;5070922;28;20392;-64
2023/07/05 05:22:58;;;;;;;8.50;5.00;;;15.10;99.90;;;;;;5052337;28;20495;-64
2023/07/05 05:25:25;;;;;;;7.75;4.85;;;15.00;99.90;;;;;;5069829;28;20442;-62
2023/07/05 05:27:51;;;;;;;6.97;4.70;;;15.10;99.90;;;;;;5052801;28;20415;-62
2023/07/05 05:30:16;;;;;;;7.72;5.18;;;15.00;99.90;;;;;;5054180;28;20406;-62
2023/07/05 05:32:42;;;;;;;6.97;4.38;;;15.00;99.90;;;;;;5069510;28;20635;-63
2023/07/05 05:35:11;;;;;;;8.23;4.63;;;15.10;99.90;;;;;;5046483;28;20420;-66
2023/07/05 05:37:36;;;;;;;6.63;4.67;;;15.10;99.90;;;;;;5069204;28;20495;-61
2023/07/05 05:40:02;;;;;;;8.77;4.83;;;15.10;99.90;;;;;;5070483;28;20490;-63
2023/07/05 05:42:29;;;;;;;7.47;4.72;;;15.10;99.90;;;;;;5051466;28;20925;-61
2023/07/05 05:44:55;;;;;;;6.90;4.07;;;15.10;99.90;;;;;;5045523;28;20909;-62
2023/07/05 05:47:20;;;;;;;6.83;4.20;;;15.10;99.90;;;;;;5067051;28;20426;-63
2023/07/05 05:49:46;;;;;;;7.70;4.40;;;15.10;99.90;;;;;;5058354;28;20413;-65
2023/07/05 05:52:11;;;;;;;9.43;4.43;;;15.20;99.90;;;;;;5048169;28;20459;-65
2023/07/05 05:54:37;;;;;;;7.00;4.60;;;15.20;99.90;;;;;;5062077;28;20419;-62
2023/07/05 05:57:03;;;;;;;8.15;4.90;;;15.20;99.90;;;;;;5066943;28;20420;-62
2023/07/05 05:59:29;;;;;;;7.80;4.65;;;15.10;99.90;;;;;;5050188;28;20435;-62
2023/07/05 06:01:54;;;;;;;7.75;4.53;;;15.10;99.90;;;;;;5068885;28;20392;-65
2023/07/05 06:04:20;;;;;;;7.68;4.82;;;15.10;99.90;;;;;;5062702;28;20427;-63
2023/07/05 06:06:46;;;;;;;8.23;4.30;;;15.10;99.90;;;;;;5049586;28;20437;-62
2023/07/05 06:09:14;;;;;;;7.83;4.77;;;15.20;99.90;;;;;;5077486;28;20903;-62
2023/07/05 06:11:40;;;;;;;7.15;4.70;;;15.20;99.90;;;;;;5064496;28;20409;-62
2023/07/05 06:14:06;;;;;;;8.13;4.60;;;15.30;99.90;;;;;;5063589;28;20434;-62
2023/07/05 06:16:32;;;;;;;7.47;4.57;;;15.30;99.90;;;;;;5064937;28;20417;-62
2023/07/05 06:18:57;;;;;;;7.10;4.22;;;15.30;99.90;;;;;;5049101;28;20447;-64
2023/07/05 06:21:23;;;;;;;8.80;4.60;;;15.30;99.90;;;;;;5043712;28;20506;-64
2023/07/05 06:23:50;;;;;;;9.50;4.77;;;15.40;99.90;;;;;;5066558;28;20427;-62
2023/07/05 06:26:20;;;;;;;7.53;4.50;;;15.50;99.90;;;;;;5057699;28;20423;-63
2023/07/05 06:28:46;;;;;;;8.00;4.53;;;15.40;99.90;;;;;;5062716;28;20751;-63
2023/07/05 06:31:12;;;;;;;9.10;4.43;;;15.40;99.90;;;;;;5066191;28;20787;-63
2023/07/05 06:33:39;;;;;;;8.23;4.45;;;15.40;99.90;;;;;;5048519;28;20777;-63
2023/07/05 06:36:06;;;;;;;7.18;4.10;;;15.40;99.90;;;;;;5058401;28;20424;-63
2023/07/05 06:38:32;;;;;;;7.60;4.38;;;15.50;99.90;;;;;;5044926;28;20496;-63
2023/07/05 06:40:58;;;;;;;7.10;4.57;;;15.70;99.90;;;;;;5065157;28;20411;-63
2023/07/05 06:43:25;;;;;;;9.68;4.35;;;15.60;99.90;;;;;;5067666;28;20495;-64
2023/07/05 06:45:52;;;;;;;6.72;4.20;;;15.60;99.90;;;;;;5062778;28;20411;-63
2023/07/05 06:48:18;;;;;;;7.78;4.00;;;15.60;99.90;;;;;;5063424;28;20404;-63
2023/07/05 06:50:48;;;;;;;7.43;3.90;;;15.60;99.90;;;;;;5063730;28;20763;-63
2023/07/05 06:53:13;;;;;;;7.10;4.00;;;15.60;99.90;;;;;;5066303;28;20964;-63
2023/07/05 06:55:40;;;;;;;5.88;3.92;;;15.60;99.90;;;;;;5058357;28;20512;-63
2023/07/05 06:58:06;;;;;;;6.28;4.00;;;15.80;99.90;;;;;;5065601;28;20507;-63
2023/07/05 07:00:31;;;;;;;6.83;3.53;;;15.70;99.90;;;;;;5067413;28;20482;-63
2023/07/05 07:02:57;;;;;;;6.73;3.43;;;15.80;99.90;;;;;;5061554;28;20433;-63
2023/07/05 07:05:23;;;;;;;7.73;3.93;;;15.90;99.90;;;;;;5044966;28;20488;-63
2023/07/05 07:07:51;;;;;;;6.63;3.63;;;15.90;99.90;;;;;;5058402;28;20400;-62
2023/07/05 07:10:17;;;;;;;7.30;3.63;;;15.90;99.90;;;;;;5062145;28;20417;-63
2023/07/05 07:12:42;;;;;;;6.07;3.90;;;15.80;99.90;;;;;;5067920;28;20769;-64
2023/07/05 07:15:08;;;;;;;6.93;4.30;;;15.60;99.90;;;;;;5059583;28;20421;-62
2023/07/05 07:17:34;;;;;;;5.97;4.13;;;15.50;99.90;;;;;;5045293;28;20419;-63
2023/07/05 07:20:00;;;;;;;7.28;4.15;;;15.40;99.90;;;;;;5062177;28;21086;-62
2023/07/05 07:22:25;;;;;;;7.67;4.13;;;15.30;99.90;;;;;;5061522;28;20400;-63
2023/07/05 07:24:51;;;;;;;5.47;3.10;;;15.20;99.90;;;;;;5065053;28;20395;-63
2023/07/05 07:27:18;;;;;;;5.27;2.77;;;15.10;99.90;;;;;;5064617;28;20495;-63
2023/07/05 07:29:43;;;;;;;5.25;2.10;;;15.00;99.90;;;;;;5064341;28;20493;-62
2023/07/05 07:32:09;;;;;;;5.63;2.17;;;14.80;99.90;;;;;;5063949;28;20510;-64
2023/07/05 07:34:36;;;;;;;4.72;2.00;;;14.60;99.90;;;;;;5067448;28;20781;-65
2023/07/05 07:37:02;;;;;;;2.67;1.90;;;14.40;99.90;;;;;;5065324;28;20510;-63
2023/07/05 07:39:29;;;;;;;3.97;2.10;;;14.30;99.90;;;;;;5067825;28;20449;-63
2023/07/05 07:41:55;;;;;;;4.07;1.92;;;14.20;99.90;;;;;;5064961;28;20446;-63
2023/07/05 07:44:21;;;;;;;4.57;1.70;;;14.10;99.90;;;;;;5065602;28;20411;-63
2023/07/05 07:46:47;;;;;;;3.45;1.73;;;13.90;99.90;;;;;;5047563;28;20412;-63
2023/07/05 07:49:13;;;;;;;3.35;1.83;;;14.00;99.90;;;;;;5055105;28;20411;-63
2023/07/05 07:51:44;;;;;;;4.40;1.90;;;13.70;99.90;;;;;;5048559;28;20415;-63
2023/07/05 07:54:16;;;;;;;3.90;1.60;;;13.70;99.90;;;;;;5063942;28;20424;-63
2023/07/05 07:56:46;;;;;;;3.88;1.73;;;13.80;99.90;;;;;;5067455;28;20420;-65
2023/07/05 07:59:12;;;;;;;2.67;1.20;;;13.60;99.90;;;;;;5067767;28;20445;-64
2023/07/05 08:01:39;;;;;;;2.60;1.40;;;13.60;99.90;;;;;;5049104;28;20431;-65
2023/07/05 08:04:06;;;;;;;4.05;1.40;;;13.50;99.90;;;;;;5064842;28;20572;-63
2023/07/05 08:06:38;;;;;;;3.90;1.30;;;13.50;99.90;;;;;;5057388;28;20425;-66
2023/07/05 08:09:06;;;;;;;2.75;1.30;;;13.40;99.90;;;;;;5073712;28;20459;-63
2023/07/05 08:11:33;;;;;;;3.55;1.10;;;13.40;99.90;;;;;;5061536;28;20498;-64
2023/07/05 08:13:59;;;;;;;3.08;1.40;;;13.30;99.90;;;;;;5057312;28;20410;-63
2023/07/05 08:16:25;;;;;;;3.67;1.37;;;13.30;99.90;;;;;;5058411;28;20494;-62
2023/07/05 08:18:51;;;;;;;4.55;1.65;;;13.40;99.90;;;;;;5062929;28;20548;-65
2023/07/05 08:21:16;;;;;;;3.40;1.60;;;13.40;99.90;;;;;;5058290;28;20444;-66
2023/07/05 08:23:43;;;;;;;4.50;1.50;;;13.40;99.90;;;;;;5055009;28;20419;-62
2023/07/05 08:26:09;;;;;;;6.95;1.55;;;13.40;99.90;;;;;;5046085;28;20435;-65
2023/07/05 08:28:35;;;;;;;4.70;1.58;;;13.30;99.90;;;;;;5064851;28;20411;-63
2023/07/05 08:31:03;;;;;;;4.70;1.52;;;13.30;99.90;;;;;;5071308;28;20946;-63
2023/07/05 08:33:31;;;;;;;3.67;1.50;;;13.60;99.90;;;;;;5063173;28;20400;-64
2023/07/05 08:36:14;;;;;;;4.95;1.55;;;13.30;99.90;;;;;;5068495;28;20429;-64
2023/07/05 08:38:46;;;;;;;4.60;1.60;;;13.30;99.90;;;;;;5072188;28;20883;-64
2023/07/05 08:41:37;;;;;;;8.68;2.17;;;13.20;99.90;;;;;;5070259;28;20774;-65
2023/07/05 08:44:05;;;;;;;5.28;2.00;;;13.20;99.90;;;;;;5068764;28;20442;-64
2023/07/05 08:46:32;;;;;;;5.50;1.95;;;13.90;99.90;;;;;;5044894;28;20420;-64
2023/07/05 08:49:12;;;;;;;5.72;2.20;;;13.10;99.90;;;;;;5050102;28;20553;-64
2023/07/05 08:51:40;;;;;;;7.10;2.13;;;13.10;99.90;;;;;;5052821;28;20404;-64
2023/07/05 08:54:10;;;;;;;5.18;2.05;;;13.10;99.90;;;;;;5066571;28;20403;-64
2023/07/05 08:56:45;;;;;;;5.07;2.00;;;13.10;99.90;;;;;;5069507;28;20829;-65
2023/07/05 08:59:27;;;;;;;7.00;2.00;;;13.10;99.90;;;;;;5064551;28;20452;-65
2023/07/05 09:01:56;;;;;;;5.63;2.05;;;13.00;99.90;;;;;;5051671;28;20410;-62
2023/07/05 09:04:32;;;;;;;6.72;1.98;;;13.00;99.90;;;;;;5071273;28;20781;-63
2023/07/05 09:07:36;;;;;;;7.88;1.90;;;13.00;99.90;;;;;;5048782;28;20405;-64
2023/07/05 09:10:23;;;;;;;8.70;2.30;;;13.00;99.90;;;;;;5064611;28;20407;-65
2023/07/05 09:12:49;;;;;;;6.95;2.40;;;13.00;99.90;;;;;;5048454;28;20419;-65
2023/07/05 09:15:20;;;;;;;9.27;2.57;;;12.90;99.90;;;;;;5068055;28;20400;-64
2023/07/05 09:18:04;;;;;;;12.73;2.92;;;12.90;99.90;;;;;;5061623;28;20451;-64
2023/07/05 09:20:54;;;;;;;13.05;3.03;;;12.90;99.90;;;;;;5006928;22;20533;-64
2023/07/05 09:23:38;;;;;;;11.32;3.47;;;12.90;99.90;;;;;;4985199;28;20473;-65
2023/07/05 09:26:40;;;;;;;16.00;3.60;;;12.90;99.90;;;;;;4983539;28;20392;-64
2023/07/05 09:29:15;;;;;;;8.80;3.10;;;12.90;99.90;;;;;;5011014;28;20415;-65
2023/07/05 09:31:43;;;;;;;14.25;3.65;;;12.90;99.90;;;;;;4980111;28;20424;-64
2023/07/05 09:34:33;;;;;;;15.63;3.38;;;13.10;99.90;;;;;;4980797;28;20507;-64
2023/07/05 09:37:01;;;;;;;12.43;3.45;;;13.00;99.90;;;;;;4979075;28;20432;-63
2023/07/05 09:39:35;;;;;;;15.50;3.60;;;13.10;99.90;;;;;;4985050;28;20430;-64
2023/07/05 09:42:04;;;;;;;11.50;3.30;;;13.20;99.90;;;;;;4977405;28;20618;-64
2023/07/05 09:44:31;;;;;;;16.33;3.80;;;13.10;99.90;;;;;;4986645;28;20414;-64
2023/07/05 09:46:57;;;;;;;15.02;3.45;;;13.20;99.90;;;;;;4984395;28;20463;-64
2023/07/05 09:49:22;;;;;;;10.30;2.95;;;13.20;99.90;;;;;;4978125;28;20420;-64
2023/07/05 09:51:49;;;;;;;10.73;3.22;;;13.50;99.90;;;;;;4973836;28;20495;-64
2023/07/05 09:54:31;;;;;;;13.38;2.95;;;13.30;99.90;;;;;;4974686;28;20430;-65
2023/07/05 09:57:04;;;;;;;11.63;3.10;;;13.20;99.90;;;;;;4984054;28;20429;-64
2023/07/05 09:59:31;;;;;;;11.40;2.95;;;13.20;99.90;;;;;;4975347;28;20426;-64
2023/07/05 10:02:14;;;;;;;11.38;3.38;;;13.20;99.90;;;;;;4982929;28;20399;-65
2023/07/05 10:04:47;;;;;;;11.32;3.70;;;13.20;99.90;;;;;;4980613;28;20419;-65
2023/07/05 10:07:28;;;;;;;13.15;3.33;;;13.20;99.90;;;;;;4983981;28;20426;-64
2023/07/05 10:10:05;;;;;;;10.63;3.10;;;13.20;99.90;;;;;;4983383;28;20418;-65
2023/07/05 10:12:40;;;;;;;13.68;3.00;;;13.20;99.90;;;;;;4981548;28;20414;-64
2023/07/05 10:15:21;;;;;;;11.00;3.10;;;13.20;99.90;;;;;;4962590;28;20449;-64
2023/07/05 10:17:48;;;;;;;12.30;3.10;;;13.20;99.90;;;;;;4978266;28;20418;-64
2023/07/05 10:20:23;;;;;;;9.32;2.70;;;13.20;99.90;;;;;;4977201;28;20767;-64
2023/07/05 10:23:16;;;;;;;9.30;2.50;;;13.20;99.90;;;;;;4975701;28;20426;-64
2023/07/05 10:25:42;;;;;;;9.45;3.15;;;13.20;99.90;;;;;;4973218;28;20430;-65
2023/07/05 10:28:14;;;;;;;11.88;3.28;;;13.20;99.90;;;;;;4976613;28;20521;-64
2023/07/05 10:30:55;;;;;;;8.70;2.90;;;13.20;99.90;;;;;;4974830;28;20411;-64
2023/07/05 10:33:27;;;;;;;13.57;3.53;;;13.30;99.90;;;;;;4976560;28;20456;-65
2023/07/05 10:36:02;;;;;;;10.85;2.90;;;13.30;99.90;;;;;;4966956;28;20462;-64
2023/07/05 10:38:44;;;;;;;10.50;3.08;;;13.30;99.90;;;;;;4968843;28;20936;-64
2023/07/05 10:41:19;;;;;;;11.27;3.55;;;13.20;99.90;;;;;;4972253;28;20410;-65
2023/07/05 10:44:07;;;;;;;10.80;3.30;;;13.20;99.90;;;;;;4977563;28;20430;-65
2023/07/05 10:46:36;;;;;;;15.82;3.63;;;13.20;99.90;;;;;;4970475;28;20413;-65
2023/07/05 10:49:06;;;;;;;12.63;3.40;;;13.10;99.90;;;;;;4976644;28;20426;-64
2023/07/05 10:51:40;;;;;;;11.35;3.33;;;13.10;99.90;;;;;;4976163;28;20422;-64
2023/07/05 10:54:25;;;;;;;12.23;3.30;;;13.20;99.90;;;;;;4976567;28;20427;-64
2023/07/05 10:56:50;;;;;;;13.75;3.58;;;13.20;99.90;;;;;;4977907;28;20591;-64
2023/07/05 10:59:40;;;;;;;10.50;3.60;;;13.20;99.90;;;;;;4973635;28;20505;-64
2023/07/05 11:02:11;;;;;;;13.70;3.70;;;13.20;99.90;;;;;;4971602;28;20422;-65
2023/07/05 11:04:43;;;;;;;14.87;3.70;;;13.20;99.90;;;;;;4981917;28;20536;-65
2023/07/05 11:07:12;;;;;;;15.80;4.22;;;13.20;99.90;;;;;;4981489;28;20429;-65
2023/07/05 11:09:41;;;;;;;12.63;3.70;;;13.20;99.90;;;;;;4984676;28;20442;-65
2023/07/05 11:12:20;;;;;;;10.50;3.10;;;13.20;99.90;;;;;;4980323;28;20746;-65
2023/07/05 11:14:46;;;;;;;8.52;2.53;;;13.20;99.90;;;;;;4976323;28;20406;-65
2023/07/05 11:17:21;;;;;;;10.70;2.72;;;13.20;99.90;;;;;;4983348;28;20447;-65
2023/07/05 11:19:47;;;;;;;8.93;3.00;;;13.20;99.90;;;;;;4987054;28;20406;-65
2023/07/05 11:22:39;;;;;;;9.70;3.10;;;13.20;99.90;;;;;;4986799;28;20488;-64
2023/07/05 11:25:09;;;;;;;10.50;3.00;;;13.20;99.90;;;;;;4985204;28;21008;-64
2023/07/05 11:27:35;;;;;;;9.85;2.92;;;13.20;99.90;;;;;;4981557;28;20473;-64
2023/07/05 11:30:00;;;;;;;9.65;2.85;;;13.30;99.90;;;;;;4985427;28;20442;-63
2023/07/05 11:33:13;;;;;;;8.63;2.88;;;13.30;99.90;;;;;;4984265;28;20448;-65
2023/07/05 11:35:48;;;;;;;9.48;3.00;;;13.30;99.90;;;;;;4988506;28;20425;-63
2023/07/05 11:38:36;;;;;;;11.03;2.70;;;13.30;99.90;;;;;;4986926;28;20458;-66
2023/07/05 11:41:04;;;;;;;11.82;2.50;;;13.40;99.90;;;;;;4983323;28;20486;-63
2023/07/05 11:43:36;;;;;;;10.15;2.88;;;13.40;99.90;;;;;;4981099;28;21116;-63
2023/07/05 11:46:04;;;;;;;9.15;3.00;;;13.40;99.90;;;;;;4976934;28;20427;-66
2023/07/05 11:48:42;;;;;;;9.07;2.65;;;13.40;99.90;;;;;;4977093;28;20863;-63
2023/07/05 11:51:30;;;;;;;11.20;2.60;;;13.40;99.90;;;;;;4980305;28;20517;-63
2023/07/05 11:53:59;;;;;;;9.85;2.90;;;13.40;99.90;;;;;;4979964;28;20491;-66
2023/07/05 11:56:29;;;;;;;10.45;2.97;;;13.40;99.90;;;;;;4986371;28;20422;-63
2023/07/05 11:58:55;;;;;;;11.57;3.30;;;13.40;99.90;;;;;;4986527;28;20460;-66
2023/07/05 12:01:32;;;;;;;12.25;3.00;;;13.40;99.90;;;;;;4989453;28;20445;-63
2023/07/05 12:04:02;;;;;;;10.07;2.90;;;13.50;99.90;;;;;;4980223;28;20423;-62
2023/07/05 12:06:40;;;;;;;11.53;3.03;;;13.40;99.90;;;;;;4983432;28;20444;-63
2023/07/05 12:09:15;;;;;;;9.48;2.80;;;13.50;99.90;;;;;;4982881;28;20440;-63
2023/07/05 12:11:42;;;;;;;10.35;2.90;;;13.60;99.90;;;;;;4983123;28;20454;-64
2023/07/05 12:14:16;;;;;;;10.85;3.45;;;13.60;99.90;;;;;;4980030;28;20447;-63
2023/07/05 12:16:43;;;;;;;13.15;3.72;;;13.60;99.90;;;;;;4985374;28;20523;-63
2023/07/05 12:19:17;;;;;;;14.07;3.80;;;13.60;99.90;;;;;;4982805;28;20414;-66
2023/07/05 12:21:52;;;;;;;12.85;3.70;;;13.60;99.90;;;;;;4982247;28;20419;-62
2023/07/05 12:24:18;;;;;;;14.82;4.00;;;13.60;99.90;;;;;;4983615;28;20425;-63
2023/07/05 12:26:44;;;;;;;13.80;3.78;;;13.60;99.90;;;;;;4984299;28;20438;-64
2023/07/05 12:29:39;;;;;;;12.10;3.43;;;13.70;99.90;;;;;;4988140;28;20937;-66
2023/07/05 12:32:08;;;;;;;13.60;3.97;;;13.80;99.90;;;;;;4994066;28;20414;-62
2023/07/05 12:34:33;;;;;;;12.85;4.00;;;13.70;99.90;;;;;;4984988;28;20433;-66
2023/07/05 12:37:00;;;;;;;15.15;4.10;;;13.70;99.90;;;;;;4987338;28;20808;-62
2023/07/05 12:39:25;;;;;;;17.70;4.22;;;13.80;99.90;;;;;;4988715;28;20475;-62
2023/07/05 12:42:05;;;;;;;14.30;4.60;;;13.90;99.90;;;;;;4987828;28;20414;-63
2023/07/05 12:44:34;;;;;;;12.97;3.87;;;14.10;99.90;;;;;;4986811;28;20581;-62
2023/07/05 12:47:16;;;;;;;14.43;4.15;;;14.20;99.90;;;;;;4979110;28;20480;-65
2023/07/05 12:49:43;;;;;;;12.63;4.10;;;14.30;99.90;;;;;;4979424;28;20432;-65
2023/07/05 12:52:21;;;;;;;15.57;3.95;;;14.20;99.90;;;;;;4981115;28;20421;-63
2023/07/05 12:54:47;;;;;;;18.10;4.28;;;14.20;99.90;;;;;;4981510;28;20551;-63